createdAt,value
2023-01-09T00:01:03.118Z,14.77
2023-01-09T00:03:35.170Z,15.10
2023-01-09T00:06:07.462Z,12.52
2023-01-09T00:08:39.720Z,15.43
2023-01-09T00:11:11.941Z,11.57
2023-01-09T00:13:44.136Z,17.48
2023-01-09T00:16:16.792Z,15.63
2023-01-09T00:18:48.860Z,15.70
2023-01-09T00:21:21.571Z,16.95
2023-01-09T00:23:54.614Z,17.05
2023-01-09T00:26:26.644Z,14.70
2023-01-09T00:28:58.777Z,14.52
2023-01-09T00:31:31.987Z,13.45
2023-01-09T00:34:07.396Z,12.07
2023-01-09T00:36:39.845Z,14.15
2023-01-09T00:39:11.884Z,10.73
2023-01-09T00:41:48.141Z,11.93
2023-01-09T00:44:42.608Z,12.68
2023-01-09T00:47:22.837Z,13.43
2023-01-09T00:49:58.632Z,14.25
2023-01-09T00:52:32.677Z,17.30
2023-01-09T00:55:06.027Z,12.75
2023-01-09T00:57:38.369Z,12.40
2023-01-09T01:00:12.317Z,12.45
2023-01-09T01:02:45.062Z,10.27
2023-01-09T01:05:35.809Z,10.27
2023-01-09T01:08:16.420Z,15.85
2023-01-09T01:10:49.696Z,12.68
2023-01-09T01:13:21.736Z,18.60
2023-01-09T01:15:53.874Z,20.52
2023-01-09T01:18:25.901Z,11.30
2023-01-09T01:20:58.045Z,10.32
2023-01-09T01:23:30.094Z,8.77
2023-01-09T01:26:13.851Z,9.82
2023-01-09T01:28:45.850Z,8.75
2023-01-09T01:31:19.801Z,11.48
2023-01-09T01:33:51.801Z,9.85
2023-01-09T01:36:26.529Z,11.10
2023-01-09T01:38:58.517Z,12.35
2023-01-09T01:41:30.624Z,8.23
2023-01-09T01:44:07.092Z,8.57
2023-01-09T01:46:39.179Z,11.57
2023-01-09T01:49:15.958Z,11.88
2023-01-09T01:51:51.848Z,10.65
2023-01-09T01:54:28.394Z,8.70
2023-01-09T01:57:03.599Z,13.43
2023-01-09T01:59:50.369Z,11.25
2023-01-09T02:02:28.346Z,11.25
2023-01-09T02:05:01.942Z,9.05
2023-01-09T02:07:35.060Z,12.40
2023-01-09T02:10:07.779Z,10.55
2023-01-09T02:12:39.892Z,9.57
2023-01-09T02:15:14.547Z,12.43
2023-01-09T02:18:08.828Z,9.52
2023-01-09T02:20:47.888Z,8.95
2023-01-09T02:23:46.437Z,11.23
2023-01-09T02:26:46.591Z,9.95
2023-01-09T02:29:37.954Z,10.10
2023-01-09T02:32:28.359Z,10.90
2023-01-09T02:35:18.265Z,9.88
2023-01-09T02:38:09.038Z,10.25
2023-01-09T02:40:55.747Z,11.90
2023-01-09T02:43:28.092Z,10.63
2023-01-09T02:46:00.393Z,12.80
2023-01-09T02:48:32.799Z,10.88
2023-01-09T02:51:14.508Z,11.77
2023-01-09T02:54:14.202Z,11.40
2023-01-09T02:57:15.297Z,9.70
2023-01-09T03:00:08.664Z,12.45
2023-01-09T03:02:52.748Z,13.77
2023-01-09T03:08:27.713Z,9.65
2023-01-09T03:11:06.747Z,12.95
2023-01-09T03:13:55.391Z,10.98
2023-01-09T03:16:32.349Z,9.15
2023-01-09T03:19:12.712Z,11.32
2023-01-09T03:21:46.502Z,11.98
2023-01-09T03:24:18.499Z,16.08
2023-01-09T03:26:51.858Z,13.20
2023-01-09T03:29:24.051Z,15.13
2023-01-09T03:31:56.323Z,10.07
2023-01-09T03:34:28.324Z,14.50
2023-01-09T03:37:00.314Z,11.27
2023-01-09T03:39:33.148Z,12.15
2023-01-09T03:42:05.358Z,12.57
2023-01-09T03:44:37.366Z,9.32
2023-01-09T03:47:10.181Z,11.70
2023-01-09T03:49:42.280Z,12.95
2023-01-09T03:52:14.658Z,9.50
2023-01-09T03:54:46.719Z,9.50
2023-01-09T03:57:18.753Z,10.70
2023-01-09T03:59:50.835Z,9.82
2023-01-09T04:02:22.817Z,9.82
2023-01-09T04:04:54.779Z,11.57
2023-01-09T04:07:27.124Z,9.68
2023-01-09T04:09:59.144Z,11.98
2023-01-09T04:12:31.356Z,10.52
2023-01-09T04:15:03.860Z,15.18
2023-01-09T04:17:36.149Z,17.80
2023-01-09T04:20:09.171Z,11.10
2023-01-09T04:22:41.182Z,14.45
2023-01-09T04:25:13.372Z,11.75
2023-01-09T04:27:46.849Z,13.20
2023-01-09T04:30:20.467Z,12.10
2023-01-09T04:32:52.717Z,9.30
2023-01-09T04:35:24.719Z,9.82
2023-01-09T04:37:56.809Z,8.93
2023-01-09T04:40:28.902Z,8.27
2023-01-09T04:43:01.162Z,7.22
2023-01-09T04:45:33.350Z,8.75
2023-01-09T04:48:06.613Z,8.15
2023-01-09T04:50:38.566Z,6.68
2023-01-09T04:53:11.003Z,5.28
2023-01-09T04:55:43.181Z,6.07
2023-01-09T04:58:15.168Z,7.47
2023-01-09T05:00:47.406Z,5.85
2023-01-09T05:03:19.438Z,3.42
2023-01-09T05:05:51.852Z,4.43
2023-01-09T05:08:24.105Z,5.78
2023-01-09T05:10:56.129Z,4.53
2023-01-09T05:13:28.611Z,6.07
2023-01-09T05:16:00.734Z,3.30
2023-01-09T05:18:33.056Z,6.18
2023-01-09T05:21:05.153Z,10.20
2023-01-09T05:23:37.278Z,5.95
2023-01-09T05:26:09.566Z,5.25
2023-01-09T05:28:41.631Z,5.22
2023-01-09T05:31:14.319Z,5.00
2023-01-09T05:33:46.531Z,4.00
2023-01-09T05:36:20.191Z,3.50
2023-01-09T05:38:52.253Z,2.47
2023-01-09T05:41:26.453Z,3.58
2023-01-09T05:43:58.994Z,4.00
2023-01-09T05:46:32.239Z,17.55
2023-01-09T05:49:04.292Z,16.60
2023-01-09T05:51:36.297Z,4.25
2023-01-09T05:54:08.381Z,5.95
2023-01-09T05:56:40.525Z,3.40
2023-01-09T05:59:13.159Z,1.50
2023-01-09T06:01:45.401Z,1.55
2023-01-09T06:04:17.480Z,3.08
2023-01-09T06:06:49.485Z,1.90
2023-01-09T06:09:21.530Z,2.05
2023-01-09T06:11:55.082Z,3.50
2023-01-09T06:16:59.912Z,1.60
2023-01-09T06:19:32.045Z,1.67
2023-01-09T06:22:04.272Z,1.70
2023-01-09T06:24:36.323Z,0.65
2023-01-09T06:27:08.537Z,0.77
2023-01-09T06:29:41.107Z,0.63
2023-01-09T06:32:13.513Z,0.77
2023-01-09T06:34:45.663Z,1.25
2023-01-09T06:37:17.721Z,1.00
2023-01-09T06:39:50.228Z,2.03
2023-01-09T06:42:22.386Z,2.13
2023-01-09T06:44:54.360Z,1.08
2023-01-09T06:47:26.585Z,1.30
2023-01-09T06:49:58.826Z,2.00
2023-01-09T06:52:31.463Z,1.30
2023-01-09T06:55:04.009Z,1.48
2023-01-09T06:57:36.218Z,1.17
2023-01-09T07:00:13.027Z,0.60
2023-01-09T07:02:47.037Z,0.40
2023-01-09T07:07:51.292Z,0.68
2023-01-09T07:10:24.241Z,0.75
2023-01-09T07:12:56.309Z,0.60
2023-01-09T07:15:28.840Z,0.60
2023-01-09T07:18:00.921Z,1.45
2023-01-09T07:20:33.328Z,0.90
2023-01-09T07:23:05.399Z,0.60
2023-01-09T07:25:37.573Z,0.60
2023-01-09T07:28:09.943Z,0.60
2023-01-09T07:30:42.055Z,0.40
2023-01-09T07:33:14.368Z,0.40
2023-01-09T07:35:47.090Z,0.47
2023-01-09T07:38:19.195Z,0.47
2023-01-09T07:40:51.255Z,0.40
2023-01-09T07:43:23.404Z,0.60
2023-01-09T07:45:56.208Z,0.40
2023-01-09T07:48:28.485Z,2.50
2023-01-09T07:51:01.148Z,1.38
2023-01-09T07:53:33.574Z,0.55
2023-01-09T07:56:06.016Z,0.57
2023-01-09T07:58:38.802Z,0.43
2023-01-09T08:01:11.470Z,0.85
2023-01-09T08:03:43.787Z,1.38
2023-01-09T08:06:16.502Z,2.00
2023-01-09T08:08:48.682Z,0.50
2023-01-09T08:11:20.856Z,0.50
2023-01-09T08:13:53.306Z,0.65
2023-01-09T08:16:25.358Z,0.68
2023-01-09T08:18:57.569Z,0.47
2023-01-09T08:21:29.760Z,0.50
2023-01-09T08:24:02.153Z,0.57
2023-01-09T08:26:34.648Z,1.03
2023-01-09T08:29:06.875Z,0.80
2023-01-09T08:31:38.952Z,0.50
2023-01-09T08:34:11.190Z,0.95
2023-01-09T08:36:43.230Z,1.27
2023-01-09T08:39:15.705Z,1.55
2023-01-09T08:42:06.637Z,1.15
2023-01-09T08:44:57.265Z,0.80
2023-01-09T08:47:33.442Z,0.60
2023-01-09T08:50:05.842Z,2.50
2023-01-09T08:52:37.857Z,1.30
2023-01-09T08:55:09.954Z,2.08
2023-01-09T08:57:52.861Z,0.60
2023-01-09T09:00:25.431Z,1.13
2023-01-09T09:02:59.108Z,1.35
2023-01-09T09:05:32.892Z,0.55
2023-01-09T09:08:06.646Z,0.63
2023-01-09T09:10:38.911Z,1.50
2023-01-09T09:13:11.024Z,1.67
2023-01-09T09:15:43.278Z,1.90
2023-01-09T09:18:15.467Z,0.82
2023-01-09T09:20:47.655Z,1.38
2023-01-09T09:23:19.637Z,6.05
2023-01-09T09:25:51.697Z,1.38
2023-01-09T09:28:23.772Z,1.23
2023-01-09T09:30:55.840Z,3.05
2023-01-09T09:33:27.976Z,2.58
2023-01-09T09:36:00.718Z,4.03
2023-01-09T09:38:32.863Z,8.77
2023-01-09T09:41:41.714Z,2.42
2023-01-09T09:44:53.497Z,5.63
2023-01-09T09:47:47.412Z,5.50
2023-01-09T09:50:39.174Z,5.32
2023-01-09T09:53:32.412Z,5.25
2023-01-09T09:56:05.722Z,3.70
2023-01-09T09:58:44.488Z,3.00
2023-01-09T10:01:22.914Z,5.38
2023-01-09T10:04:01.532Z,2.80
2023-01-09T10:06:41.689Z,5.20
2023-01-09T10:09:13.706Z,1.45
2023-01-09T10:11:49.969Z,2.10
2023-01-09T10:14:24.704Z,2.67
2023-01-09T10:17:19.891Z,2.47
2023-01-09T10:20:04.201Z,6.65
2023-01-09T10:23:02.850Z,3.25
2023-01-09T10:26:17.144Z,5.10
